Terminal Aerodrome Forecast
Issued by NWS

Home | Current Version | Previous Version | Text Only | Print | Product List | Glossary On
Versions: 1 2 3 4 5 6 7 8 9 10 11 12 13
913
FTUS43 KDVN 201315 AAA
TAFBRL
TAF AMD
KBRL 201315Z 2013/2112 32013G19KT P6SM VCSH BKN025 OVC040
     FM201430 29017G24KT P6SM BKN015
     FM201600 29018G25KT P6SM BKN025
     FM201900 29015G22KT P6SM BKN035
     FM210000 31011KT P6SM SCT040=

USA.gov is the U.S. government's official web portal to all federal, state and local government web resources and services.